Time;durP1;ratioP1;P1;durP2;ratioP2;P2;SDS_P1;SDS_P2;PMS_P1;PMS_P2;Temp;Humidity;BMP_temperature;BMP_pressure;BME280_temperature;BME280_humidity;BME280_pressure;Samples;Min_cycle;Max_cycle;Signal;HPM_P1;HPM_P2
2023/08/02 00:00:42;;;;;;;0.20;0.20;;;14.70;51.50;;;;;;5071440;28;20194;-55
2023/08/02 00:03:13;;;;;;;0.10;0.10;;;14.70;51.40;;;;;;5071354;28;20202;-64
2023/08/02 00:05:53;;;;;;;0.13;0.13;;;14.70;51.50;;;;;;5071197;28;20219;-55
2023/08/02 00:08:24;;;;;;;0.10;0.10;;;14.70;51.40;;;;;;5071544;28;20194;-58
2023/08/02 00:10:54;;;;;;;0.10;0.10;;;14.70;51.40;;;;;;5071594;28;20199;-56
2023/08/02 00:13:25;;;;;;;0.10;0.10;;;14.70;51.30;;;;;;5071038;28;20199;-57
2023/08/02 00:15:55;;;;;;;0.10;0.10;;;14.70;51.30;;;;;;5073493;28;20219;-58
2023/08/02 00:18:26;;;;;;;0.10;0.10;;;14.70;51.20;;;;;;5070965;28;20230;-51
2023/08/02 00:20:59;;;;;;;0.10;0.10;;;14.70;51.30;;;;;;5071528;28;20532;-56
2023/08/02 00:23:29;;;;;;;0.10;0.10;;;14.70;51.20;;;;;;5079110;28;20210;-57
2023/08/02 00:26:00;;;;;;;0.10;0.10;;;14.80;51.30;;;;;;5091491;28;20214;-55
2023/08/02 00:28:31;;;;;;;0.10;0.10;;;14.80;51.30;;;;;;5091469;28;20653;-63
2023/08/02 00:31:01;;;;;;;0.10;0.10;;;14.80;51.40;;;;;;5091256;28;20627;-62
2023/08/02 00:33:32;;;;;;;0.10;0.10;;;14.80;51.30;;;;;;5091217;28;20202;-59
2023/08/02 00:36:05;;;;;;;0.10;0.10;;;14.80;51.40;;;;;;5091139;28;20214;-61
2023/08/02 00:38:35;;;;;;;0.10;0.10;;;14.80;51.40;;;;;;5090964;28;20557;-55
2023/08/02 00:41:06;;;;;;;0.10;0.10;;;14.80;51.40;;;;;;5091420;28;20198;-49
2023/08/02 00:43:42;;;;;;;0.10;0.10;;;14.80;51.40;;;;;;5091772;28;20203;-57
2023/08/02 00:46:14;;;;;;;0.10;0.10;;;14.80;51.40;;;;;;5094922;28;20689;-60
2023/08/02 00:48:46;;;;;;;0.10;0.10;;;14.80;51.30;;;;;;5094713;28;20194;-51
2023/08/02 00:51:20;;;;;;;0.10;0.10;;;14.80;51.20;;;;;;5094937;28;20226;-55
2023/08/02 00:53:51;;;;;;;0.20;0.20;;;14.90;51.30;;;;;;5094804;28;20197;-55
2023/08/02 00:56:22;;;;;;;0.10;0.10;;;14.90;51.30;;;;;;5094254;28;20230;-51
2023/08/02 00:58:53;;;;;;;0.10;0.10;;;14.90;51.20;;;;;;5095058;28;20222;-53
2023/08/02 01:01:23;;;;;;;0.17;0.17;;;14.90;51.20;;;;;;5094437;28;20213;-62
2023/08/02 01:03:54;;;;;;;0.10;0.10;;;14.90;51.20;;;;;;5094644;28;20201;-55
2023/08/02 01:06:35;;;;;;;0.10;0.10;;;14.90;51.20;;;;;;5094479;28;20214;-60
2023/08/02 01:09:09;;;;;;;0.10;0.10;;;14.90;51.20;;;;;;5095072;28;20198;-59
2023/08/02 01:11:43;;;;;;;0.15;0.15;;;14.90;51.20;;;;;;5093736;28;20194;-51
2023/08/02 01:14:18;;;;;;;0.10;0.10;;;14.90;51.20;;;;;;5094225;28;20190;-53
2023/08/02 01:16:51;;;;;;;0.10;0.10;;;14.90;51.20;;;;;;5093902;28;20283;-52
2023/08/02 01:19:24;;;;;;;0.10;0.10;;;14.90;51.20;;;;;;5094400;28;20217;-57
2023/08/02 01:21:57;;;;;;;0.10;0.10;;;14.90;51.10;;;;;;5094396;28;20190;-60
2023/08/02 01:24:34;;;;;;;0.10;0.10;;;14.90;51.10;;;;;;5077907;28;20215;-56
2023/08/02 01:27:08;;;;;;;0.10;0.10;;;14.90;51.10;;;;;;5073767;28;20688;-58
2023/08/02 01:29:44;;;;;;;0.10;0.10;;;14.90;51.00;;;;;;5073924;28;20202;-58
2023/08/02 01:32:15;;;;;;;0.10;0.10;;;15.00;51.00;;;;;;5073869;28;20225;-57
2023/08/02 01:34:46;;;;;;;0.10;0.10;;;15.00;51.00;;;;;;5073321;28;20199;-57
2023/08/02 01:37:18;;;;;;;0.10;0.10;;;15.00;50.90;;;;;;5074755;28;20201;-57
2023/08/02 01:39:49;;;;;;;0.10;0.10;;;15.00;50.80;;;;;;5073465;28;20197;-58
2023/08/02 01:42:20;;;;;;;0.10;0.10;;;15.00;50.80;;;;;;5073199;28;20214;-62
2023/08/02 01:44:51;;;;;;;0.10;0.10;;;15.00;50.80;;;;;;5073280;28;20562;-55
2023/08/02 01:47:22;;;;;;;0.10;0.10;;;15.00;50.90;;;;;;5073377;28;20198;-51
2023/08/02 01:49:52;;;;;;;0.10;0.10;;;15.00;50.90;;;;;;5073210;28;20191;-55
2023/08/02 01:52:25;;;;;;;0.10;0.10;;;15.00;50.90;;;;;;5073268;28;20194;-59
2023/08/02 01:54:55;;;;;;;0.10;0.10;;;15.10;51.00;;;;;;5072666;28;20242;-52
2023/08/02 01:57:26;;;;;;;0.10;0.10;;;15.10;50.90;;;;;;5072966;28;20198;-59
2023/08/02 01:59:57;;;;;;;0.10;0.10;;;15.10;50.90;;;;;;5073269;28;20232;-49
2023/08/02 02:02:27;;;;;;;0.10;0.10;;;15.10;50.80;;;;;;5073206;28;20619;-50
2023/08/02 02:04:58;;;;;;;0.10;0.10;;;15.10;50.90;;;;;;5073329;28;20706;-57
2023/08/02 02:07:30;;;;;;;0.10;0.10;;;15.10;50.80;;;;;;5073609;28;20681;-55
2023/08/02 02:10:01;;;;;;;0.10;0.10;;;15.10;50.80;;;;;;5073132;28;20650;-57
2023/08/02 02:12:32;;;;;;;0.10;0.10;;;15.10;50.80;;;;;;5072920;28;20206;-57
2023/08/02 02:15:02;;;;;;;0.10;0.10;;;15.10;50.70;;;;;;5072818;28;20210;-59
2023/08/02 02:17:33;;;;;;;0.10;0.10;;;15.10;50.70;;;;;;5072891;28;20283;-53
2023/08/02 02:20:04;;;;;;;0.10;0.10;;;15.20;50.70;;;;;;5072745;28;20206;-54
2023/08/02 02:22:36;;;;;;;0.10;0.10;;;15.20;50.60;;;;;;5076034;28;20187;-51
2023/08/02 02:25:07;;;;;;;0.10;0.10;;;15.20;50.50;;;;;;5093114;28;20225;-59
2023/08/02 02:27:38;;;;;;;0.10;0.10;;;15.20;50.70;;;;;;5092775;28;20202;-55
2023/08/02 02:30:09;;;;;;;0.10;0.10;;;15.20;50.60;;;;;;5092654;28;20202;-63
2023/08/02 02:32:40;;;;;;;0.10;0.10;;;15.20;50.50;;;;;;5092696;28;20194;-61
2023/08/02 02:35:13;;;;;;;0.10;0.10;;;15.20;50.40;;;;;;5092780;28;20225;-57
2023/08/02 02:37:45;;;;;;;0.10;0.10;;;15.20;50.40;;;;;;5092671;28;20271;-54
2023/08/02 02:40:17;;;;;;;0.10;0.10;;;15.30;50.40;;;;;;5092879;28;20650;-58
2023/08/02 02:42:48;;;;;;;0.10;0.10;;;15.30;50.50;;;;;;5092554;28;20712;-54
2023/08/02 02:45:18;;;;;;;0.10;0.10;;;15.30;50.50;;;;;;5092416;28;20218;-52
2023/08/02 02:47:49;;;;;;;0.10;0.10;;;15.30;50.60;;;;;;5092665;28;20197;-52
2023/08/02 02:50:20;;;;;;;0.10;0.10;;;15.30;50.60;;;;;;5092675;28;20606;-55
2023/08/02 02:52:52;;;;;;;0.10;0.10;;;15.30;50.50;;;;;;5092329;28;20204;-51
2023/08/02 02:55:23;;;;;;;0.10;0.10;;;15.30;50.50;;;;;;5092258;28;20267;-60
2023/08/02 02:57:53;;;;;;;0.10;0.10;;;15.30;50.50;;;;;;5091883;28;20562;-62
2023/08/02 03:00:24;;;;;;;0.10;0.10;;;15.40;50.40;;;;;;5092237;28;20190;-58
2023/08/02 03:02:55;;;;;;;0.10;0.10;;;15.40;50.40;;;;;;5092162;28;20198;-57
2023/08/02 03:05:25;;;;;;;0.10;0.10;;;15.40;50.40;;;;;;5091905;28;20624;-50
2023/08/02 03:07:58;;;;;;;0.00;0.00;;;15.40;50.40;;;;;;5091577;28;20195;-58
2023/08/02 03:10:28;;;;;;;0.10;0.10;;;15.40;50.40;;;;;;5092036;28;20205;-56
2023/08/02 03:12:59;;;;;;;0.10;0.10;;;15.40;50.40;;;;;;5091685;28;20191;-63
2023/08/02 03:15:30;;;;;;;0.10;0.10;;;15.50;50.40;;;;;;5092445;28;20640;-53
2023/08/02 03:18:00;;;;;;;0.05;0.05;;;15.50;50.50;;;;;;5092485;28;20660;-54
2023/08/02 03:20:31;;;;;;;0.10;0.10;;;15.50;50.40;;;;;;5091204;28;20190;-59
2023/08/02 03:23:04;;;;;;;0.10;0.10;;;15.50;50.50;;;;;;5087665;28;20211;-55
2023/08/02 03:25:35;;;;;;;0.10;0.10;;;15.50;50.50;;;;;;5071466;28;20215;-51
2023/08/02 03:28:08;;;;;;;0.10;0.10;;;15.50;50.50;;;;;;5071293;28;20203;-59
2023/08/02 03:30:39;;;;;;;0.10;0.10;;;15.50;50.50;;;;;;5072386;28;20202;-57
2023/08/02 03:33:10;;;;;;;0.10;0.10;;;15.60;50.60;;;;;;5071807;28;20654;-56
2023/08/02 03:35:40;;;;;;;0.10;0.10;;;15.50;50.50;;;;;;5071878;28;20210;-54
2023/08/02 03:38:13;;;;;;;0.10;0.10;;;15.60;50.50;;;;;;5071799;28;20195;-57
2023/08/02 03:40:43;;;;;;;0.10;0.10;;;15.60;50.40;;;;;;5074096;28;20209;-50
2023/08/02 03:43:14;;;;;;;0.10;0.10;;;15.60;50.40;;;;;;5072138;28;20191;-53
2023/08/02 03:45:45;;;;;;;0.10;0.10;;;15.60;50.30;;;;;;5071351;28;20230;-57
2023/08/02 03:48:15;;;;;;;0.10;0.10;;;15.70;50.30;;;;;;5071295;28;20559;-54
2023/08/02 03:50:46;;;;;;;0.10;0.10;;;15.70;50.30;;;;;;5071715;28;20202;-51
2023/08/02 03:53:18;;;;;;;0.10;0.10;;;15.70;50.30;;;;;;5077879;28;20198;-55
2023/08/02 03:55:49;;;;;;;0.10;0.10;;;15.70;50.30;;;;;;5091365;28;20221;-52
2023/08/02 03:58:20;;;;;;;0.00;0.00;;;15.70;50.30;;;;;;5091200;28;20190;-60
2023/08/02 04:00:51;;;;;;;0.10;0.10;;;15.70;50.30;;;;;;5091864;28;20190;-57
2023/08/02 04:03:21;;;;;;;0.00;0.00;;;15.70;50.30;;;;;;5091959;28;20194;-54
2023/08/02 04:05:52;;;;;;;0.10;0.10;;;15.70;50.30;;;;;;5091642;28;20210;-63
2023/08/02 04:08:24;;;;;;;0.10;0.10;;;15.80;50.30;;;;;;5091846;28;20661;-55
2023/08/02 04:10:55;;;;;;;0.10;0.10;;;15.80;50.20;;;;;;5091795;28;20198;-56
2023/08/02 04:13:26;;;;;;;0.03;0.03;;;15.80;50.10;;;;;;5091741;28;20268;-55
2023/08/02 04:15:56;;;;;;;0.10;0.10;;;15.80;50.10;;;;;;5091536;28;20681;-54
2023/08/02 04:18:27;;;;;;;0.10;0.10;;;15.80;49.90;;;;;;5093111;28;20198;-53
2023/08/02 04:20:59;;;;;;;0.10;0.10;;;15.80;49.80;;;;;;5095676;28;20205;-57
2023/08/02 04:23:31;;;;;;;0.10;0.10;;;15.90;49.70;;;;;;5095330;28;20209;-55
2023/08/02 04:26:02;;;;;;;0.08;0.08;;;15.80;49.70;;;;;;5092003;28;20263;-60
2023/08/02 04:28:32;;;;;;;0.10;0.10;;;15.90;49.80;;;;;;5074834;28;20650;-57
2023/08/02 04:31:03;;;;;;;0.10;0.10;;;15.90;49.90;;;;;;5075139;28;20206;-54
2023/08/02 04:33:34;;;;;;;0.03;0.03;;;15.90;49.90;;;;;;5075945;28;20202;-58
2023/08/02 04:36:04;;;;;;;0.10;0.10;;;15.90;49.90;;;;;;5075046;28;20219;-51
2023/08/02 04:38:37;;;;;;;0.10;0.10;;;15.90;50.00;;;;;;5075065;28;20195;-55
2023/08/02 04:41:07;;;;;;;0.10;0.10;;;15.90;49.80;;;;;;5074759;28;20202;-54
2023/08/02 04:43:38;;;;;;;0.10;0.10;;;15.90;49.80;;;;;;5074322;28;20682;-54
2023/08/02 04:46:09;;;;;;;0.10;0.10;;;15.90;49.70;;;;;;5074619;28;20519;-62
2023/08/02 04:48:39;;;;;;;0.10;0.10;;;15.80;49.70;;;;;;5074882;28;20199;-54
2023/08/02 04:51:10;;;;;;;0.05;0.05;;;15.80;49.70;;;;;;5074581;28;20202;-49
2023/08/02 04:53:43;;;;;;;0.10;0.10;;;15.90;49.70;;;;;;5084118;28;20224;-54
2023/08/02 04:56:14;;;;;;;0.10;0.10;;;15.90;49.70;;;;;;5094679;28;20300;-53
2023/08/02 04:58:45;;;;;;;0.10;0.10;;;15.80;49.70;;;;;;5094724;28;20216;-53
2023/08/02 05:01:15;;;;;;;0.10;0.10;;;15.90;50.40;;;;;;5094385;28;20194;-54
2023/08/02 05:03:46;;;;;;;0.10;0.10;;;15.80;49.70;;;;;;5094638;28;20637;-60
2023/08/02 05:06:17;;;;;;;0.10;0.10;;;15.90;49.70;;;;;;5093969;28;20210;-61
2023/08/02 05:08:49;;;;;;;0.10;0.10;;;15.80;49.70;;;;;;5094891;28;20205;-57
2023/08/02 05:11:20;;;;;;;0.10;0.10;;;15.90;49.50;;;;;;5094445;28;20208;-55
2023/08/02 05:13:50;;;;;;;0.10;0.10;;;15.90;49.50;;;;;;5094219;28;20202;-58
2023/08/02 05:16:21;;;;;;;0.00;0.00;;;15.80;49.50;;;;;;5093918;28;20684;-59
2023/08/02 05:18:51;;;;;;;0.10;0.10;;;15.80;49.50;;;;;;5094097;28;20198;-53
2023/08/02 05:21:23;;;;;;;0.10;0.10;;;15.80;49.50;;;;;;5093165;28;20194;-56
2023/08/02 05:23:55;;;;;;;0.10;0.10;;;15.80;49.50;;;;;;5082278;28;20297;-51
2023/08/02 05:26:27;;;;;;;0.10;0.10;;;15.80;49.50;;;;;;5090458;28;20213;-56
2023/08/02 05:28:57;;;;;;;0.00;0.00;;;15.80;49.50;;;;;;5093471;28;20191;-62
2023/08/02 05:31:26;;;;;;;0.00;0.00;;;15.80;49.50;;;;;;5093443;28;20198;-50
2023/08/02 05:33:57;;;;;;;0.03;0.03;;;15.80;49.50;;;;;;5090444;28;20197;-58
2023/08/02 05:36:28;;;;;;;0.03;0.03;;;15.80;49.60;;;;;;5076225;28;20218;-58
2023/08/02 05:39:00;;;;;;;0.10;0.10;;;15.80;49.60;;;;;;5073597;28;20696;-55
2023/08/02 05:41:31;;;;;;;0.10;0.10;;;15.80;49.70;;;;;;5073743;28;20195;-54
2023/08/02 05:44:01;;;;;;;0.10;0.10;;;15.70;49.60;;;;;;5073531;28;20202;-53
2023/08/02 05:46:33;;;;;;;0.10;0.10;;;15.70;49.60;;;;;;5073149;28;20685;-63
2023/08/02 05:49:04;;;;;;;0.08;0.08;;;15.70;49.60;;;;;;5073329;28;20199;-62
2023/08/02 05:51:34;;;;;;;0.10;0.10;;;15.70;49.60;;;;;;5073137;28;20669;-56
2023/08/02 05:54:07;;;;;;;0.10;0.10;;;15.70;49.60;;;;;;5086472;28;20194;-59
2023/08/02 05:56:38;;;;;;;0.00;0.00;;;15.70;49.60;;;;;;5093396;28;20217;-58
2023/08/02 05:59:08;;;;;;;0.10;0.10;;;15.70;49.60;;;;;;5093220;28;20206;-58
2023/08/02 06:01:39;;;;;;;0.00;0.00;;;15.70;49.60;;;;;;5093886;28;20604;-53
2023/08/02 06:04:09;;;;;;;0.10;0.10;;;15.60;49.50;;;;;;5093518;28;20190;-52
2023/08/02 06:06:40;;;;;;;0.00;0.00;;;15.60;49.50;;;;;;5092952;28;20237;-60
2023/08/02 06:09:13;;;;;;;0.10;0.10;;;15.60;49.50;;;;;;5093473;28;20642;-59
2023/08/02 06:11:43;;;;;;;0.10;0.10;;;15.60;49.50;;;;;;5093074;28;20246;-57
2023/08/02 06:14:14;;;;;;;0.10;0.10;;;15.60;49.60;;;;;;5092973;28;20202;-58
2023/08/02 06:16:45;;;;;;;0.10;0.10;;;15.60;49.50;;;;;;5092778;28;20221;-58
2023/08/02 06:19:15;;;;;;;0.10;0.10;;;15.50;49.50;;;;;;5092426;28;20620;-57
2023/08/02 06:21:46;;;;;;;0.10;0.10;;;15.50;49.50;;;;;;5093672;28;20201;-54
2023/08/02 06:24:19;;;;;;;0.10;0.10;;;15.50;49.50;;;;;;5092814;28;20202;-56
2023/08/02 06:26:51;;;;;;;0.03;0.03;;;15.50;49.50;;;;;;5092581;28;20214;-56
2023/08/02 06:29:21;;;;;;;0.08;0.08;;;15.50;49.50;;;;;;5092719;28;20198;-52
2023/08/02 06:31:52;;;;;;;0.10;0.10;;;15.50;49.50;;;;;;5077115;28;20194;-56
2023/08/02 06:34:22;;;;;;;0.10;0.10;;;15.40;49.40;;;;;;5071964;28;20214;-60
2023/08/02 06:36:53;;;;;;;0.03;0.03;;;15.40;49.40;;;;;;5072698;28;20215;-58
2023/08/02 06:39:26;;;;;;;0.10;0.10;;;15.40;49.40;;;;;;5072353;28;20569;-57
2023/08/02 06:41:56;;;;;;;0.00;0.00;;;15.40;49.40;;;;;;5071747;28;20199;-53
2023/08/02 06:44:27;;;;;;;0.10;0.10;;;15.40;49.40;;;;;;5078024;28;20198;-58
2023/08/02 06:46:57;;;;;;;0.10;0.10;;;15.40;49.50;;;;;;5091987;28;20201;-58
2023/08/02 06:49:28;;;;;;;0.10;0.10;;;15.30;49.40;;;;;;5072957;28;20203;-55
2023/08/02 06:51:59;;;;;;;0.10;0.10;;;15.30;49.40;;;;;;5072059;28;20198;-59
2023/08/02 06:54:31;;;;;;;0.10;0.10;;;15.30;49.40;;;;;;5071810;28;20650;-57
2023/08/02 06:57:02;;;;;;;0.10;0.10;;;15.30;49.40;;;;;;5072186;28;20598;-60
2023/08/02 06:59:32;;;;;;;0.10;0.10;;;15.30;49.40;;;;;;5071685;28;20685;-52
2023/08/02 07:02:03;;;;;;;0.10;0.10;;;15.30;49.50;;;;;;5071913;28;20203;-63
2023/08/02 07:04:33;;;;;;;0.10;0.10;;;15.30;49.40;;;;;;5071142;28;20195;-52
2023/08/02 07:07:04;;;;;;;0.10;0.10;;;15.20;49.40;;;;;;5089454;28;20277;-55
2023/08/02 07:09:37;;;;;;;0.10;0.10;;;15.20;49.40;;;;;;5092303;28;20931;-53
2023/08/02 07:12:08;;;;;;;0.10;0.10;;;15.20;49.30;;;;;;5092183;28;20194;-50
2023/08/02 07:14:38;;;;;;;0.10;0.10;;;15.20;49.30;;;;;;5091751;28;20201;-56
2023/08/02 07:17:09;;;;;;;0.10;0.10;;;15.20;49.30;;;;;;5091529;28;20186;-64
2023/08/02 07:19:40;;;;;;;0.10;0.10;;;15.20;49.30;;;;;;5091005;28;20213;-63
2023/08/02 07:22:13;;;;;;;0.10;0.10;;;15.20;49.30;;;;;;5091741;28;20186;-57
2023/08/02 07:24:45;;;;;;;0.10;0.10;;;15.20;49.30;;;;;;5071365;28;20210;-58
2023/08/02 07:27:16;;;;;;;0.10;0.10;;;15.10;49.20;;;;;;5079325;28;20197;-58
2023/08/02 07:29:49;;;;;;;0.10;0.10;;;15.10;49.20;;;;;;5073325;28;20203;-49
2023/08/02 07:32:20;;;;;;;0.10;0.10;;;15.10;49.20;;;;;;5071705;28;20226;-55
2023/08/02 07:34:51;;;;;;;0.00;0.00;;;15.10;49.30;;;;;;5071024;28;20222;-61
2023/08/02 07:37:21;;;;;;;0.10;0.10;;;15.00;49.30;;;;;;5071379;28;20202;-50
2023/08/02 07:39:54;;;;;;;0.10;0.10;;;15.00;49.30;;;;;;5087111;28;20229;-51
2023/08/02 07:42:24;;;;;;;0.10;0.10;;;15.00;49.30;;;;;;5090883;28;20194;-59
2023/08/02 07:45:09;;;;;;;0.10;0.10;;;15.00;49.30;;;;;;5087863;28;20210;-65
2023/08/02 07:47:40;;;;;;;0.05;0.05;;;15.00;49.30;;;;;;5091531;28;20201;-56
2023/08/02 07:50:11;;;;;;;0.10;0.10;;;15.00;49.20;;;;;;5090778;28;20207;-60
2023/08/02 07:52:42;;;;;;;0.00;0.00;;;15.00;49.30;;;;;;5091503;28;20202;-57
2023/08/02 07:55:14;;;;;;;0.10;0.10;;;15.00;49.20;;;;;;5095452;28;20218;-56
2023/08/02 07:57:45;;;;;;;0.10;0.10;;;15.00;49.20;;;;;;5095066;28;20198;-58
2023/08/02 08:00:16;;;;;;;0.10;0.10;;;14.90;49.20;;;;;;5084937;28;20230;-60
2023/08/02 08:02:47;;;;;;;0.10;0.10;;;14.90;49.20;;;;;;5074970;28;20201;-55
2023/08/02 08:05:18;;;;;;;0.00;0.00;;;14.90;49.10;;;;;;5074859;28;20631;-49
2023/08/02 08:07:48;;;;;;;0.10;0.10;;;14.90;49.20;;;;;;5076280;28;20194;-59
2023/08/02 08:10:21;;;;;;;0.10;0.10;;;14.90;49.20;;;;;;5075146;28;20542;-55
2023/08/02 08:12:52;;;;;;;0.10;0.10;;;14.90;49.20;;;;;;5075228;28;20190;-64
2023/08/02 08:15:22;;;;;;;0.10;0.10;;;14.90;49.20;;;;;;5075076;28;20218;-63
2023/08/02 08:17:53;;;;;;;0.10;0.10;;;14.90;49.20;;;;;;5074945;28;20252;-63
2023/08/02 08:20:23;;;;;;;0.10;0.10;;;14.80;49.20;;;;;;5074602;28;20272;-56
2023/08/02 08:22:54;;;;;;;0.10;0.10;;;14.80;49.80;;;;;;5077019;28;20214;-54
2023/08/02 08:25:27;;;;;;;0.10;0.10;;;14.80;49.20;;;;;;5093491;28;20210;-53
2023/08/02 08:27:57;;;;;;;0.10;0.10;;;14.80;49.20;;;;;;5077386;28;20206;-51
2023/08/02 08:30:28;;;;;;;0.10;0.10;;;14.80;49.20;;;;;;5074993;28;20199;-57
2023/08/02 08:32:58;;;;;;;0.10;0.10;;;14.80;49.20;;;;;;5074558;28;20632;-58
2023/08/02 08:35:29;;;;;;;0.08;0.08;;;14.80;49.20;;;;;;5074383;28;20580;-55
2023/08/02 08:38:00;;;;;;;0.10;0.10;;;14.80;49.20;;;;;;5074202;28;20195;-53
2023/08/02 08:40:32;;;;;;;0.10;0.10;;;14.80;49.20;;;;;;5074272;28;20223;-53
2023/08/02 08:43:03;;;;;;;0.10;0.10;;;14.80;49.20;;;;;;5077010;28;20203;-56
2023/08/02 08:45:34;;;;;;;0.10;0.10;;;14.70;49.10;;;;;;5094304;28;20338;-56
2023/08/02 08:48:04;;;;;;;0.10;0.10;;;14.70;49.10;;;;;;5093948;28;20556;-57
2023/08/02 08:50:35;;;;;;;0.10;0.10;;;14.70;49.10;;;;;;5094160;28;20752;-49
2023/08/02 08:53:13;;;;;;;0.10;0.10;;;14.70;49.20;;;;;;5076737;28;20198;-60
2023/08/02 08:55:47;;;;;;;0.10;0.10;;;14.70;49.20;;;;;;5073978;28;20214;-51
2023/08/02 08:58:18;;;;;;;0.10;0.10;;;14.70;49.20;;;;;;5083512;28;20206;-53
2023/08/02 09:00:50;;;;;;;0.10;0.10;;;14.70;49.40;;;;;;5094014;28;20218;-46
2023/08/02 09:03:21;;;;;;;0.10;0.10;;;14.70;49.20;;;;;;5091608;28;20194;-63
2023/08/02 09:05:52;;;;;;;0.10;0.10;;;14.70;49.20;;;;;;5084579;28;20210;-57
2023/08/02 09:08:23;;;;;;;0.10;0.10;;;14.70;49.20;;;;;;5078159;28;20198;-54
2023/08/02 09:10:55;;;;;;;0.10;0.10;;;14.70;49.20;;;;;;5091923;28;20205;-46
2023/08/02 09:13:27;;;;;;;0.10;0.10;;;14.70;49.20;;;;;;5092533;28;20194;-58
2023/08/02 09:16:11;;;;;;;0.10;0.10;;;14.60;49.20;;;;;;5094377;28;20218;-49
2023/08/02 09:18:42;;;;;;;0.10;0.10;;;14.60;49.20;;;;;;5093695;28;20244;-56
2023/08/02 09:21:14;;;;;;;0.10;0.10;;;14.60;49.20;;;;;;5093757;28;20222;-48
2023/08/02 09:23:49;;;;;;;0.10;0.10;;;14.60;49.20;;;;;;5093479;28;20213;-58
2023/08/02 09:26:22;;;;;;;0.10;0.10;;;14.60;49.20;;;;;;5093255;28;20216;-50
2023/08/02 09:29:03;;;;;;;0.10;0.10;;;14.60;49.20;;;;;;5093353;28;20592;-46
2023/08/02 09:31:36;;;;;;;0.10;0.10;;;14.60;49.20;;;;;;5087277;28;20205;-54
2023/08/02 09:34:07;;;;;;;0.10;0.10;;;14.50;49.10;;;;;;5093293;28;20201;-52
2023/08/02 09:36:38;;;;;;;0.10;0.10;;;14.50;49.10;;;;;;5089556;28;20210;-54
2023/08/02 09:39:15;;;;;;;0.10;0.10;;;14.50;49.20;;;;;;5091969;28;20198;-49
2023/08/02 09:41:48;;;;;;;0.10;0.10;;;14.50;49.20;;;;;;5092997;28;20222;-55
2023/08/02 09:44:23;;;;;;;0.10;0.10;;;14.60;49.20;;;;;;5093237;28;20202;-49
2023/08/02 09:46:54;;;;;;;0.10;0.10;;;14.50;49.20;;;;;;5093765;28;20210;-46
2023/08/02 09:49:25;;;;;;;0.10;0.10;;;14.50;49.20;;;;;;5093860;28;20194;-55
2023/08/02 09:51:56;;;;;;;0.10;0.10;;;14.50;49.20;;;;;;5093841;28;20209;-63
2023/08/02 09:54:26;;;;;;;0.10;0.10;;;14.60;49.30;;;;;;5093608;28;20202;-55
2023/08/02 09:56:59;;;;;;;0.00;0.00;;;14.50;49.20;;;;;;5093280;28;20197;-60
2023/08/02 09:59:31;;;;;;;0.10;0.10;;;14.50;49.30;;;;;;5093003;28;20202;-45
2023/08/02 10:02:03;;;;;;;0.10;0.10;;;14.50;49.30;;;;;;5093014;28;20279;-50
2023/08/02 10:04:36;;;;;;;0.10;0.10;;;14.50;49.30;;;;;;5093144;28;20198;-59
2023/08/02 10:07:09;;;;;;;0.10;0.10;;;14.50;49.30;;;;;;5093234;28;20197;-47
2023/08/02 10:09:41;;;;;;;0.10;0.10;;;14.50;49.30;;;;;;5093761;28;20197;-52
2023/08/02 10:12:16;;;;;;;0.10;0.10;;;14.50;49.30;;;;;;5086128;28;20267;-47
2023/08/02 10:14:47;;;;;;;0.10;0.10;;;14.50;49.40;;;;;;5087892;28;20693;-54
2023/08/02 10:17:19;;;;;;;0.10;0.10;;;14.50;49.40;;;;;;5091761;28;20251;-54
2023/08/02 10:19:50;;;;;;;0.10;0.10;;;14.50;49.40;;;;;;5085685;28;20194;-51
2023/08/02 10:22:21;;;;;;;0.10;0.10;;;14.50;49.40;;;;;;5092941;28;20226;-53
2023/08/02 10:24:53;;;;;;;0.13;0.13;;;14.50;49.40;;;;;;5077585;28;20218;-46
2023/08/02 10:27:27;;;;;;;0.08;0.08;;;14.50;49.40;;;;;;5072771;28;20198;-46
2023/08/02 10:29:59;;;;;;;0.10;0.10;;;14.50;49.40;;;;;;5089056;28;20190;-46
2023/08/02 10:32:30;;;;;;;0.10;0.10;;;14.50;49.40;;;;;;5092448;28;20205;-50
2023/08/02 10:35:01;;;;;;;0.10;0.10;;;14.50;49.40;;;;;;5080303;28;20622;-49
2023/08/02 10:37:56;;;;;;;0.10;0.10;;;14.40;49.30;;;;;;5072596;28;20237;-45
2023/08/02 10:40:27;;;;;;;0.10;0.10;;;14.40;49.40;;;;;;5082515;28;20233;-48
2023/08/02 10:43:16;;;;;;;0.10;0.10;;;14.40;49.30;;;;;;5091995;28;20658;-59
2023/08/02 10:46:07;;;;;;;0.10;0.10;;;14.40;49.30;;;;;;5092117;28;20213;-55
2023/08/02 10:48:38;;;;;;;0.10;0.10;;;14.40;49.30;;;;;;5091265;28;20266;-52
2023/08/02 10:51:28;;;;;;;0.10;0.10;;;14.40;49.30;;;;;;5091622;28;20201;-47
2023/08/02 10:54:16;;;;;;;0.10;0.10;;;14.40;49.20;;;;;;5079333;28;20206;-49
2023/08/02 10:57:14;;;;;;;0.10;0.10;;;14.30;49.20;;;;;;5071953;28;20273;-45
2023/08/02 10:59:47;;;;;;;0.10;0.10;;;14.30;49.30;;;;;;5075400;28;20205;-46
2023/08/02 11:02:17;;;;;;;0.10;0.10;;;14.30;49.30;;;;;;5091335;28;20230;-62
2023/08/02 11:04:49;;;;;;;0.10;0.10;;;14.30;49.30;;;;;;5090781;28;20522;-46
2023/08/02 11:07:21;;;;;;;0.10;0.10;;;14.30;49.30;;;;;;5083438;28;20190;-46
2023/08/02 11:09:54;;;;;;;0.10;0.10;;;14.30;49.30;;;;;;5075952;28;20277;-49
2023/08/02 11:12:26;;;;;;;0.10;0.10;;;14.30;49.30;;;;;;5090707;28;20645;-49
2023/08/02 11:14:59;;;;;;;0.10;0.10;;;14.30;49.30;;;;;;5093001;28;20255;-49
2023/08/02 11:17:29;;;;;;;0.10;0.10;;;14.30;49.30;;;;;;5091796;28;20190;-48
2023/08/02 11:20:01;;;;;;;0.10;0.10;;;14.30;49.30;;;;;;5095897;28;20193;-55
2023/08/02 11:22:38;;;;;;;0.10;0.10;;;14.30;49.30;;;;;;5092415;28;20222;-56
2023/08/02 11:25:12;;;;;;;0.10;0.10;;;14.30;49.90;;;;;;5076847;28;20241;-47
2023/08/02 11:27:43;;;;;;;0.10;0.10;;;14.30;49.30;;;;;;5090363;28;20598;-58
2023/08/02 11:30:15;;;;;;;0.10;0.10;;;14.20;49.20;;;;;;5091525;28;20182;-52
2023/08/02 11:32:47;;;;;;;0.10;0.10;;;14.20;49.20;;;;;;5088171;28;20202;-51
2023/08/02 11:35:21;;;;;;;0.10;0.10;;;14.20;49.20;;;;;;5091222;28;20202;-59
2023/08/02 11:37:52;;;;;;;0.10;0.10;;;14.20;49.20;;;;;;5090930;28;20197;-61
2023/08/02 11:40:22;;;;;;;0.10;0.10;;;14.20;49.20;;;;;;5091427;28;20186;-48
2023/08/02 11:42:54;;;;;;;0.10;0.10;;;14.20;49.20;;;;;;5090698;28;20222;-46
2023/08/02 11:45:36;;;;;;;0.10;0.10;;;14.20;49.20;;;;;;5091298;28;20214;-55
2023/08/02 11:48:07;;;;;;;0.10;0.10;;;14.20;49.20;;;;;;5090248;28;20301;-50
2023/08/02 11:50:38;;;;;;;0.10;0.10;;;14.20;49.20;;;;;;5091018;28;20197;-57
2023/08/02 11:53:09;;;;;;;0.10;0.10;;;14.20;49.20;;;;;;5085561;28;20655;-53
2023/08/02 11:55:40;;;;;;;0.10;0.10;;;14.20;49.20;;;;;;5079741;28;20205;-56
2023/08/02 11:58:11;;;;;;;0.10;0.10;;;14.20;49.20;;;;;;5091495;28;20672;-55
2023/08/02 12:00:44;;;;;;;0.10;0.10;;;14.20;49.20;;;;;;5091097;28;20182;-62
2023/08/02 12:03:15;;;;;;;0.10;0.10;;;14.20;49.20;;;;;;5090904;28;20594;-58
2023/08/02 12:05:47;;;;;;;0.10;0.10;;;14.20;49.20;;;;;;5090766;28;20245;-48
2023/08/02 12:08:19;;;;;;;0.10;0.10;;;14.10;49.10;;;;;;5074539;28;20190;-53
2023/08/02 12:10:51;;;;;;;0.10;0.10;;;14.10;49.20;;;;;;5071419;28;20207;-56
2023/08/02 12:13:21;;;;;;;0.10;0.10;;;14.10;49.10;;;;;;5071374;28;20194;-50
2023/08/02 12:16:06;;;;;;;0.10;0.10;;;14.10;49.80;;;;;;5071149;28;20215;-50
2023/08/02 12:18:51;;;;;;;0.08;0.08;;;14.10;49.20;;;;;;5071248;28;20198;-52
2023/08/02 12:21:22;;;;;;;0.10;0.10;;;14.10;49.20;;;;;;5071222;28;20305;-54
2023/08/02 12:23:53;;;;;;;0.10;0.10;;;14.10;49.20;;;;;;5082126;28;20202;-52
2023/08/02 12:26:34;;;;;;;0.10;0.10;;;14.10;49.20;;;;;;5091968;28;20681;-56
2023/08/02 12:29:05;;;;;;;0.10;0.10;;;14.10;49.20;;;;;;5091505;28;20205;-49
2023/08/02 12:31:47;;;;;;;0.10;0.10;;;14.10;49.20;;;;;;5091690;28;20732;-55
2023/08/02 12:34:18;;;;;;;0.10;0.10;;;14.10;49.20;;;;;;5091386;28;20194;-50
2023/08/02 12:36:50;;;;;;;0.10;0.10;;;14.10;49.20;;;;;;5084174;28;20207;-52
2023/08/02 12:39:22;;;;;;;0.10;0.10;;;14.10;49.20;;;;;;5072130;28;20222;-55
2023/08/02 12:41:52;;;;;;;0.10;0.10;;;14.10;49.20;;;;;;5074619;28;20226;-60
2023/08/02 12:44:23;;;;;;;0.10;0.10;;;14.10;49.20;;;;;;5074518;28;20214;-51
2023/08/02 12:46:56;;;;;;;0.10;0.10;;;14.10;49.20;;;;;;5074577;28;20210;-59
2023/08/02 12:49:26;;;;;;;0.10;0.10;;;14.10;49.10;;;;;;5074539;28;20220;-49
2023/08/02 12:51:57;;;;;;;0.10;0.10;;;14.10;49.10;;;;;;5074569;28;20603;-53
2023/08/02 12:54:27;;;;;;;0.10;0.10;;;14.00;49.00;;;;;;5090609;28;20206;-47
2023/08/02 12:56:58;;;;;;;0.10;0.10;;;14.00;49.00;;;;;;5094966;28;20194;-55
2023/08/02 12:59:29;;;;;;;0.10;0.10;;;14.10;49.10;;;;;;5094840;28;20201;-49
2023/08/02 13:02:01;;;;;;;0.08;0.08;;;14.00;49.00;;;;;;5094076;28;20217;-55
2023/08/02 13:04:32;;;;;;;0.10;0.10;;;14.00;49.00;;;;;;5094377;28;20590;-51
2023/08/02 13:07:03;;;;;;;0.10;0.10;;;14.00;49.10;;;;;;5094645;28;20190;-57
2023/08/02 13:09:38;;;;;;;0.10;0.10;;;14.00;49.10;;;;;;5095271;28;20194;-52
2023/08/02 13:12:09;;;;;;;0.10;0.10;;;14.00;49.10;;;;;;5094539;28;20556;-49